• Join FlightAware (Why Join?)
  • Login
  • US Flag 
07:45PM EDT


 

Airport Tracker/Info


-or-


 

Live Flight TrackerFlight Track Log ✈ DAL3698 ✈ 28-Apr-2013 ✈ KLAN - KMSP

Flight Track Log - Related Links

Times and Time Zones

All times are in EDT time to prevent confusion due to time zone crossing. See the DAL3698 flight status page for this flight to view local times or setup timezone preferences in your user account.

Time Position Orientation Groundspeed Altitude Reporting Facility
EDT Latitude Longitude Course Direction KTS MPH feet Rate Location/Type
07:27AM 42.7800 -84.6939 279° West 195 224 3,200  Level Chicago Center
07:28AM 42.7814 -84.7819 271° West 230 265 5,300 2,280 Climbing Chicago Center
07:29AM 42.7494 -85.0966 283° West  Level FlightAware Approximate
07:29AM 42.7825 -84.8883 271° West 271 312 7,800  Level Chicago Center
07:30AM 42.7601 -85.2308 276° West  Level FlightAware Approximate
07:30AM 42.7836 -85.0194 271° West 288 331 10,700  Level Chicago Center
07:31AM 42.7715 -85.3649 278° West  Level FlightAware Approximate
07:31AM 42.7853 -85.1444 271° West 322 371 12,100  Level Chicago Center
07:32AM 42.7845 -85.4932 279° West  Level FlightAware Approximate
07:32AM 42.7858 -85.2761 270° West 343 395 14,000  Level Chicago Center
07:33AM 42.7996 -85.6211 279° West  Level FlightAware Approximate
07:33AM 42.7864 -85.4119 270° West 354 407 15,400  Level Chicago Center
07:34AM 42.7939 -85.5514 274° West 370 426 16,800 1,380 Climbing Chicago Center
07:35AM 42.8125 -85.6944 280° West 379 436 18,300 1,380 Climbing Chicago Center
07:36AM 42.8317 -85.8406 280° West 386 444 19,700 1,380 Climbing Chicago Center
07:37AM 42.8497 -85.9872 280° West 386 444 21,100 1,140 Climbing Chicago Center
07:38AM 42.8686 -86.1386 280° West 398 458 22,100 1,020 Climbing Chicago Center
07:39AM 42.8889 -86.2897 280° West 400 460 23,200 840 Climbing Chicago Center
07:40AM 42.9069 -86.4406 279° West 402 463 23,900 840 Climbing Chicago Center
07:41AM 42.9261 -86.5942 280° West 406 467 24,900 960 Climbing Chicago Center
07:42AM 42.9442 -86.7483 279° West 410 472 25,900 960 Climbing Chicago Center
07:43AM 42.9625 -86.9000 279° West 406 467 26,900 960 Climbing Chicago Center
07:44AM 42.9797 -87.0508 279° West 402 463 27,900 540 Climbing Chicago Center
07:45AM 42.9975 -87.2056 279° West 411 473 28,000  Climbing Chicago Center
07:46AM 43.0475 -87.3547 295° West 429 494 28,000  Level Chicago Center
07:47AM 43.1125 -87.5139 299° West 448 516 28,000 -60 Level Chicago Center
07:48AM 43.1736 -87.6633 299° West 449 517 27,900 -60 Descending Chicago Center
07:49AM 43.2356 -87.8183 299° West 461 531 27,900  Level Chicago Center
07:50AM 43.2986 -87.9697 300° West 458 527 27,900  Level Chicago Center
07:51AM 43.3589 -88.1178 299° West 447 514 27,900  Level Chicago Center
07:52AM 43.4183 -88.2667 299° West 446 513 28,000  Climbing Chicago Center
07:53AM 43.4842 -88.4314 299° West 443 510 27,900  Descending Chicago Center
07:55AM 43.5442 -88.5789 299° West 444 511 28,000  Climbing Chicago Center
07:56AM 43.5997 -88.7236 298° West 433 498 28,000 -60 Level Chicago Center
07:57AM 43.6567 -88.8689 298° West 431 496 27,900  Descending Chicago Center
07:58AM 43.7142 -89.0136 299° West 429 494 28,000  Climbing Chicago Center
07:59AM 43.7700 -89.1589 298° West 428 493 27,900  Descending Chicago Center
08:00AM 43.8269 -89.3047 298° West 430 495 28,000  Climbing Chicago Center
08:01AM 43.8828 -89.4494 298° West 426 490 27,900  Descending Chicago Center
08:02AM 43.9381 -89.5936 298° West 424 488 28,000  Climbing Chicago Center
08:03AM 43.9919 -89.7381 297° West 421 484 28,000  Level Chicago Center
08:04AM 44.0606 -89.9028 300° West 421 484 28,000  Level Chicago Center
08:05AM 44.1211 -90.0417 301° West 420 483 28,000 -780 Level Chicago Center
08:06AM 44.1808 -90.1814 301° West 420 483 26,500 -1,500 Descending Chicago Center
08:07AM 44.2358 -90.3150 300° West 418 481 25,000 -1,260 Descending Chicago Center
08:08AM 44.2950 -90.4503 301° West 414 476 24,000 -540 Descending Chicago Center
08:09AM 44.3525 -90.5853 301° West 409 471 24,000  Level Chicago Center
08:10AM 44.4081 -90.7189 300° West 405 466 24,000  Level Chicago Center
08:11AM 44.4639 -90.8542 300° West 405 466 24,000  Level Chicago Center
08:12AM 44.5314 -91.0131 301° West 401 461 24,000  Level Chicago Center
08:13AM 44.5864 -91.1464 300° West 399 459 24,000  Level Chicago Center
08:14AM 44.6422 -91.2814 300° West 403 464 24,000 -60 Level Chicago Center
08:15AM 44.7039 -91.4300 300° West 400 460 23,900 -660 Descending Minneapolis Center
08:16AM 44.7592 -91.5667 300° West 402 463 22,700 -1,740 Descending Minneapolis Center
08:17AM 44.8142 -91.7011 300° West 401 461 20,400 -2,220 Descending Minneapolis Center
08:18AM 44.8622 -91.8203 300° West 368 423 18,200 -2,220 Descending Minneapolis Center
08:19AM 44.9103 -91.9386 300° West 352 405 16,000 -2,100 Descending Minneapolis Center
08:20AM 44.9575 -92.0575 299° West 351 404 14,000 -1,920 Descending Minneapolis Center
08:21AM 45.0039 -92.1725 300° West 339 390 12,100 -1,500 Descending Minneapolis Center
08:22AM 45.0472 -92.2817 299° West 324 373 11,000 -600 Descending Minneapolis Center
08:23AM 45.0336 -92.4078 261° West 333 383 10,900 -60 Descending Minneapolis Center
08:24AM 45.0111 -92.5356 256° West 336 387 10,900  Level Minneapolis Center
08:25AM 44.9906 -92.6631 257° West 336 387 10,900  Level Minneapolis Center
08:26AM 44.9661 -92.8156 257° West 334 384 10,900  Level Minneapolis Center
08:27AM 44.9456 -92.9422 257° West 332 382 10,900 -600 Level Minneapolis Center
08:28AM 44.9281 -93.0503 257° West 285 328 9,700 -1,500 Descending Minneapolis Center
08:29AM 44.9589 -93.1453 295° West 276 318 7,900 -1,680 Descending Minneapolis Center
08:30AM 44.9944 -93.2311 300° West 253 291 6,400 -1,020 Descending Minneapolis Center
08:31AM 45.0297 -93.3047 304° West 230 265 5,900 -840 Descending Minneapolis Center
08:32AM 45.0361 -93.3786 277° West 220 253 4,800 -1,020 Descending Minneapolis Center
08:33AM 44.9844 -93.3764 178° South 206 237 3,900 -780 Descending Minneapolis Center
08:34AM 44.9431 -93.3364 146° Southeast 179 206 3,300 -600 Descending Minneapolis Center
08:35AM 44.9222 -93.2861 120° Southeast 148 170 2,700 -600 Descending Minneapolis Center